Time;durP1;ratioP1;P1;durP2;ratioP2;P2;SDS_P1;SDS_P2;PMS_P1;PMS_P2;Temp;Humidity;BMP_temperature;BMP_pressure;BME280_temperature;BME280_humidity;BME280_pressure;Samples;Min_cycle;Max_cycle;Signal;HPM_P1;HPM_P2
2022/05/25 00:01:06;;;;;;;3.67;2.42;;;14.10;99.90;;;;;;4993124;28;20375;-77
2022/05/25 00:03:34;;;;;;;3.38;2.40;;;14.00;99.90;;;;;;4990796;28;20041;-77
2022/05/25 00:06:01;;;;;;;5.63;2.60;;;14.00;99.90;;;;;;4990780;28;20461;-77
2022/05/25 00:08:27;;;;;;;3.35;2.42;;;14.00;99.90;;;;;;4988028;28;20022;-77
2022/05/25 00:10:54;;;;;;;3.53;2.60;;;14.00;99.90;;;;;;4992042;28;20145;-77
2022/05/25 00:13:19;;;;;;;3.08;2.60;;;14.00;99.90;;;;;;4992683;28;20030;-77
2022/05/25 00:15:46;;;;;;;7.10;3.45;;;13.90;99.90;;;;;;4993501;28;20126;-77
2022/05/25 00:18:11;;;;;;;3.92;2.72;;;13.90;99.90;;;;;;4975966;28;20035;-77
2022/05/25 00:20:37;;;;;;;4.40;2.95;;;13.80;99.90;;;;;;4976667;28;20060;-77
2022/05/25 00:23:03;;;;;;;4.13;3.30;;;13.90;99.90;;;;;;4992435;28;20526;-77
2022/05/25 00:25:33;;;;;;;2.80;2.50;;;13.90;99.90;;;;;;4990541;28;20034;-77
2022/05/25 00:28:07;;;;;;;3.63;2.88;;;13.80;99.90;;;;;;4993108;28;20069;-75
2022/05/25 00:30:35;;;;;;;3.50;3.20;;;13.80;99.90;;;;;;4975424;28;20161;-77
2022/05/25 00:33:01;;;;;;;6.50;3.30;;;13.80;99.90;;;;;;4993179;28;20027;-77
2022/05/25 00:35:29;;;;;;;4.85;3.30;;;13.80;99.90;;;;;;4975541;28;20026;-77
2022/05/25 00:37:55;;;;;;;4.15;2.83;;;13.70;99.90;;;;;;4992170;28;20027;-76
2022/05/25 00:40:43;;;;;;;4.75;3.17;;;13.70;99.90;;;;;;4990624;28;20034;-76
2022/05/25 00:43:09;;;;;;;4.53;2.78;;;13.80;99.90;;;;;;4991986;28;20567;-77
2022/05/25 00:45:39;;;;;;;4.47;3.10;;;13.70;99.90;;;;;;4975299;28;20030;-77
2022/05/25 00:48:07;;;;;;;5.28;3.67;;;13.80;99.90;;;;;;4991335;28;20053;-78
2022/05/25 00:51:12;;;;;;;3.20;2.90;;;13.80;99.90;;;;;;4991721;28;20042;-77
2022/05/25 00:53:20;;;;;;;3.20;2.90;;;13.90;99.90;;;;;;4992396;28;20371;-78
2022/05/25 00:55:46;;;;;;;4.05;2.80;;;13.80;99.90;;;;;;4992610;28;20022;-76
2022/05/25 00:58:11;;;;;;;3.97;3.15;;;13.80;99.90;;;;;;4971265;28;20494;-77
2022/05/25 01:00:37;;;;;;;5.50;4.22;;;13.80;99.90;;;;;;4989666;28;20411;-78
2022/05/25 01:03:08;;;;;;;7.60;3.40;;;13.80;99.90;;;;;;4991031;28;20038;-77
2022/05/25 01:05:52;;;;;;;4.85;3.45;;;13.80;99.90;;;;;;4990669;28;20105;-77
2022/05/25 01:08:40;;;;;;;3.83;3.22;;;13.80;99.90;;;;;;4990901;28;20097;-77
2022/05/25 01:11:33;;;;;;;3.28;2.95;;;13.80;99.90;;;;;;4992817;28;20022;-77
2022/05/25 01:14:20;;;;;;;4.75;3.10;;;13.80;99.90;;;;;;4972010;28;20025;-78
2022/05/25 01:17:01;;;;;;;5.18;3.38;;;13.70;99.90;;;;;;4988362;28;20433;-78
2022/05/25 01:19:41;;;;;;;4.82;3.92;;;13.60;99.90;;;;;;4991434;28;20490;-76
2022/05/25 01:22:41;;;;;;;5.25;3.85;;;13.50;99.90;;;;;;4990510;28;20142;-77
2022/05/25 01:25:41;;;;;;;6.10;3.90;;;13.50;99.90;;;;;;4990660;28;20047;-77
2022/05/25 01:28:50;;;;;;;4.50;3.88;;;13.50;99.90;;;;;;4992707;28;20552;-77
2022/05/25 01:31:23;;;;;;;5.00;3.85;;;13.50;99.90;;;;;;4962044;28;20378;-78
2022/05/25 01:34:00;;;;;;;5.07;3.45;;;13.50;99.90;;;;;;4988594;28;20026;-77
2022/05/25 01:36:32;;;;;;;4.30;3.90;;;13.50;99.90;;;;;;4990401;28;20471;-77
2022/05/25 01:39:06;;;;;;;5.53;3.65;;;13.60;99.90;;;;;;4992641;28;20058;-76
2022/05/25 01:41:37;;;;;;;5.15;3.92;;;13.60;99.90;;;;;;4991212;28;20113;-75
2022/05/25 01:44:28;;;;;;;5.25;3.90;;;13.60;99.90;;;;;;4990683;28;20497;-78
2022/05/25 01:47:01;;;;;;;4.70;4.05;;;13.60;99.90;;;;;;4987562;28;20109;-78
2022/05/25 01:49:38;;;;;;;4.40;3.95;;;13.50;99.90;;;;;;4972679;28;20505;-76
2022/05/25 01:52:08;;;;;;;6.88;3.65;;;13.40;99.90;;;;;;4987261;28;20058;-77
2022/05/25 01:54:40;;;;;;;4.80;4.30;;;13.40;99.90;;;;;;4988193;28;20030;-77
2022/05/25 01:57:10;;;;;;;6.20;4.30;;;13.40;99.90;;;;;;4990754;28;20026;-78
2022/05/25 01:59:35;;;;;;;6.35;4.40;;;13.40;99.90;;;;;;4973770;28;20088;-77
2022/05/25 02:04:50;;;;;;;4.88;4.10;;;13.30;99.90;;;;;;4989237;28;20630;-77
2022/05/25 02:07:58;;;;;;;4.97;3.85;;;13.30;99.90;;;;;;4988186;28;20030;-77
2022/05/25 02:10:37;;;;;;;5.60;4.25;;;13.20;99.90;;;;;;4970597;28;20228;-77
2022/05/25 02:13:35;;;;;;;4.22;3.63;;;13.30;99.90;;;;;;4989416;28;20045;-77
2022/05/25 02:16:21;;;;;;;4.43;3.65;;;13.20;99.90;;;;;;5007041;28;20034;-76
2022/05/25 02:18:59;;;;;;;4.07;3.67;;;13.20;99.90;;;;;;5006452;28;20101;-77
2022/05/25 02:21:33;;;;;;;6.18;4.45;;;13.30;99.90;;;;;;4989105;28;20498;-77
2022/05/25 02:24:16;;;;;;;5.13;3.70;;;13.30;99.90;;;;;;4972940;28;20394;-77
2022/05/25 02:26:55;;;;;;;5.38;3.80;;;13.30;99.90;;;;;;4989785;28;20041;-77
2022/05/25 02:29:30;;;;;;;5.03;4.10;;;13.40;99.90;;;;;;4972247;28;20391;-77
2022/05/25 02:32:14;;;;;;;6.45;4.40;;;13.40;99.90;;;;;;4990868;28;20033;-77
2022/05/25 02:34:45;;;;;;;5.82;4.63;;;13.40;99.90;;;;;;4990242;28;20141;-77
2022/05/25 02:37:12;;;;;;;7.78;4.60;;;13.50;99.90;;;;;;4990203;28;20026;-77
2022/05/25 02:39:38;;;;;;;5.68;4.82;;;13.50;99.90;;;;;;4987318;28;20543;-77
2022/05/25 02:42:12;;;;;;;5.50;4.50;;;13.50;99.90;;;;;;4986616;28;20161;-77
2022/05/25 02:44:38;;;;;;;7.32;4.75;;;13.50;99.90;;;;;;4988795;28;20088;-77
2022/05/25 02:47:04;;;;;;;4.63;3.80;;;13.40;99.90;;;;;;4989801;28;20149;-76
2022/05/25 02:49:29;;;;;;;5.63;4.32;;;13.40;99.90;;;;;;4988884;28;20113;-77
2022/05/25 02:51:55;;;;;;;5.18;4.53;;;13.30;99.90;;;;;;4990345;28;20038;-77
2022/05/25 02:54:22;;;;;;;5.57;4.10;;;13.20;99.90;;;;;;4988721;28;20113;-77
2022/05/25 02:56:48;;;;;;;5.28;4.43;;;13.10;99.90;;;;;;4987886;28;20029;-77
2022/05/25 02:59:14;;;;;;;5.53;4.93;;;13.10;99.90;;;;;;4993429;28;20038;-77
2022/05/25 03:01:40;;;;;;;9.00;5.28;;;13.10;99.90;;;;;;4993444;28;20491;-76
2022/05/25 03:04:05;;;;;;;6.35;4.60;;;12.90;99.90;;;;;;4993595;28;20426;-76
2022/05/25 03:06:31;;;;;;;7.18;4.97;;;12.90;99.90;;;;;;4992511;28;20031;-77
2022/05/25 03:08:57;;;;;;;7.90;5.32;;;12.90;99.90;;;;;;4994001;28;20035;-77
2022/05/25 03:11:24;;;;;;;6.65;4.97;;;12.90;99.90;;;;;;4992648;28;20027;-77
2022/05/25 03:13:49;;;;;;;6.07;5.28;;;12.80;99.90;;;;;;4991220;28;20077;-76
2022/05/25 03:16:18;;;;;;;6.18;5.22;;;12.70;99.90;;;;;;4993038;28;20026;-77
2022/05/25 03:18:45;;;;;;;5.57;4.57;;;12.70;99.90;;;;;;4976541;28;20418;-76
2022/05/25 03:21:11;;;;;;;5.85;4.88;;;12.70;99.90;;;;;;4992797;28;20022;-76
2022/05/25 03:23:38;;;;;;;6.03;4.88;;;12.70;99.90;;;;;;4992446;28;20545;-76
2022/05/25 03:26:03;;;;;;;10.18;5.38;;;12.70;99.90;;;;;;4976125;28;20057;-76
2022/05/25 03:28:29;;;;;;;5.57;4.97;;;12.70;99.90;;;;;;4991376;28;20462;-77
2022/05/25 03:30:55;;;;;;;5.45;4.63;;;12.70;99.90;;;;;;4992073;28;20034;-76
2022/05/25 03:33:20;;;;;;;5.28;4.78;;;12.70;99.90;;;;;;4975236;28;20054;-76
2022/05/25 03:35:46;;;;;;;6.45;5.25;;;12.70;99.90;;;;;;4992788;28;20054;-76
2022/05/25 03:38:12;;;;;;;6.82;4.88;;;12.70;99.90;;;;;;4993926;28;20033;-76
2022/05/25 03:40:39;;;;;;;7.03;5.70;;;12.60;99.90;;;;;;4975818;28;20033;-76
2022/05/25 03:43:14;;;;;;;7.85;5.28;;;12.60;99.90;;;;;;4976035;28;20026;-76
2022/05/25 03:45:40;;;;;;;5.63;4.82;;;12.60;99.90;;;;;;4991104;28;20558;-77
2022/05/25 03:48:07;;;;;;;6.45;5.80;;;12.60;99.90;;;;;;4991662;28;20117;-76
2022/05/25 03:50:38;;;;;;;5.85;5.25;;;12.60;99.90;;;;;;4991203;28;20311;-77
2022/05/25 03:53:06;;;;;;;6.72;5.57;;;12.60;99.90;;;;;;4993581;28;20081;-77
2022/05/25 03:55:33;;;;;;;6.35;5.10;;;12.60;99.90;;;;;;4996225;28;20098;-77
2022/05/25 03:57:59;;;;;;;9.20;5.28;;;12.50;99.90;;;;;;4991974;28;20038;-77
2022/05/25 04:00:24;;;;;;;7.30;5.70;;;12.50;99.90;;;;;;4993489;28;20109;-77
2022/05/25 04:02:50;;;;;;;6.75;5.88;;;12.50;99.90;;;;;;4993098;28;20038;-76
2022/05/25 04:05:16;;;;;;;7.90;6.03;;;12.50;99.90;;;;;;4991600;28;20030;-77
2022/05/25 04:07:46;;;;;;;6.63;5.22;;;12.60;99.90;;;;;;4992827;28;20030;-77
2022/05/25 04:10:15;;;;;;;7.13;6.00;;;12.60;99.90;;;;;;4993319;28;20036;-77
2022/05/25 04:12:42;;;;;;;6.15;5.22;;;12.60;99.90;;;;;;4992051;28;20046;-77
2022/05/25 04:15:12;;;;;;;6.28;5.60;;;12.60;99.90;;;;;;4992140;28;20058;-77
2022/05/25 04:17:37;;;;;;;6.13;5.15;;;12.60;99.90;;;;;;4993032;28;20034;-77
2022/05/25 04:20:05;;;;;;;6.32;5.07;;;12.50;99.90;;;;;;4990543;28;20035;-76
2022/05/25 04:22:32;;;;;;;11.25;7.20;;;12.50;99.90;;;;;;4992766;28;20061;-77
2022/05/25 04:24:59;;;;;;;7.00;5.82;;;12.50;99.90;;;;;;4991558;28;20022;-77
2022/05/25 04:27:26;;;;;;;8.88;6.63;;;12.50;99.90;;;;;;4991377;28;20034;-77
2022/05/25 04:29:52;;;;;;;7.57;6.30;;;12.60;99.90;;;;;;4992101;28;20490;-76
2022/05/25 04:32:17;;;;;;;8.18;6.53;;;12.60;99.90;;;;;;4993150;28;20026;-77
2022/05/25 04:34:43;;;;;;;6.78;6.07;;;12.60;99.90;;;;;;4991476;28;20467;-77
2022/05/25 04:39:54;;;;;;;7.82;6.65;;;12.80;99.90;;;;;;5000913;28;20038;-77
2022/05/25 04:42:19;;;;;;;9.02;6.95;;;12.70;99.90;;;;;;4992724;28;20065;-77
2022/05/25 04:44:45;;;;;;;8.15;7.18;;;12.70;99.90;;;;;;4993940;28;20038;-77
2022/05/25 04:47:10;;;;;;;10.25;7.78;;;12.70;99.90;;;;;;4992536;28;20026;-77
2022/05/25 04:49:36;;;;;;;8.07;6.97;;;12.80;99.90;;;;;;4992825;28;20521;-77
2022/05/25 04:52:03;;;;;;;7.47;5.00;;;12.90;99.90;;;;;;4975067;28;20026;-77
2022/05/25 04:54:28;;;;;;;8.02;6.22;;;13.00;99.90;;;;;;4990956;28;20022;-76
2022/05/25 04:59:39;;;;;;;7.97;6.60;;;13.50;99.90;;;;;;4992918;28;20023;-77
2022/05/25 05:02:05;;;;;;;8.15;6.55;;;13.60;99.90;;;;;;4991895;28;20447;-77
2022/05/25 05:04:31;;;;;;;7.50;6.70;;;13.60;99.90;;;;;;4975675;28;20062;-77
2022/05/25 05:06:56;;;;;;;9.25;5.60;;;13.60;99.90;;;;;;4996510;28;20022;-76
2022/05/25 05:09:22;;;;;;;8.13;5.95;;;13.60;99.90;;;;;;4991086;28;20113;-76
2022/05/25 05:11:48;;;;;;;7.63;5.95;;;13.50;99.90;;;;;;4992735;28;20077;-76
2022/05/25 05:14:14;;;;;;;6.95;6.25;;;13.40;99.90;;;;;;4990904;28;20030;-77
2022/05/25 05:16:40;;;;;;;7.32;5.90;;;13.50;99.90;;;;;;4991404;28;20149;-77
2022/05/25 05:19:06;;;;;;;7.97;6.70;;;13.50;99.90;;;;;;4991869;28;20062;-78
2022/05/25 05:21:31;;;;;;;7.43;6.05;;;13.40;99.90;;;;;;4994451;28;20090;-78
2022/05/25 05:23:57;;;;;;;7.65;5.80;;;13.40;99.90;;;;;;4992178;28;20030;-77
2022/05/25 05:26:22;;;;;;;7.10;5.97;;;13.40;99.90;;;;;;4989296;28;20053;-77
2022/05/25 05:28:53;;;;;;;7.53;6.53;;;13.50;99.90;;;;;;4992108;28;20023;-77
2022/05/25 05:31:19;;;;;;;10.60;6.03;;;13.40;99.90;;;;;;4989725;28;20033;-77
2022/05/25 05:33:45;;;;;;;8.13;5.72;;;13.50;99.90;;;;;;4993307;28;20395;-77
2022/05/25 05:36:18;;;;;;;9.95;6.88;;;13.50;99.90;;;;;;4974911;28;20030;-77
2022/05/25 05:39:03;;;;;;;10.60;6.43;;;13.60;99.90;;;;;;4988452;28;20022;-77
2022/05/25 05:41:34;;;;;;;6.78;5.63;;;13.50;99.90;;;;;;4988543;28;20030;-77
2022/05/25 05:44:00;;;;;;;6.82;5.55;;;13.50;99.90;;;;;;4988992;28;20030;-78
2022/05/25 05:46:28;;;;;;;6.63;5.25;;;13.50;99.90;;;;;;4991405;28;20034;-76
2022/05/25 05:48:54;;;;;;;8.48;5.60;;;13.60;99.90;;;;;;4971695;28;20072;-76
2022/05/25 05:51:19;;;;;;;7.85;6.55;;;13.60;99.90;;;;;;4989872;28;20030;-76
2022/05/25 05:53:45;;;;;;;6.85;5.13;;;13.60;99.90;;;;;;4991412;28;20105;-76
2022/05/25 05:56:12;;;;;;;7.45;5.45;;;13.60;99.90;;;;;;4991533;28;20037;-76
2022/05/25 05:58:38;;;;;;;11.13;5.95;;;13.70;99.90;;;;;;4988006;28;20058;-77
2022/05/25 06:01:04;;;;;;;6.07;5.20;;;13.70;99.90;;;;;;4989664;28;20058;-76
2022/05/25 06:03:29;;;;;;;7.47;4.85;;;13.80;99.90;;;;;;4989866;28;20026;-77
2022/05/25 06:05:55;;;;;;;8.27;4.75;;;13.90;99.90;;;;;;4988385;28;20030;-77
2022/05/25 06:08:26;;;;;;;5.50;4.70;;;14.00;99.90;;;;;;4990259;28;20023;-76
2022/05/25 06:10:52;;;;;;;9.07;5.75;;;14.10;99.90;;;;;;4989344;28;20022;-77
2022/05/25 06:13:18;;;;;;;7.07;4.40;;;14.00;99.90;;;;;;4987783;28;20033;-77
2022/05/25 06:21:23;;;;;;;6.57;4.75;;;14.20;99.90;;;;;;4992531;28;20427;-77
2022/05/25 06:23:49;;;;;;;7.00;4.05;;;14.40;99.90;;;;;;4988788;28;20117;-77
2022/05/25 06:26:16;;;;;;;4.85;3.50;;;14.40;99.90;;;;;;4991726;28;20736;-78
2022/05/25 06:28:43;;;;;;;5.93;4.90;;;14.40;99.90;;;;;;4989008;28;20179;-77
2022/05/25 06:31:08;;;;;;;6.82;3.92;;;14.50;99.90;;;;;;4971305;28;20018;-78
2022/05/25 06:33:35;;;;;;;6.40;4.05;;;14.50;99.90;;;;;;4972456;28;20113;-77
2022/05/25 06:36:30;;;;;;;6.88;4.53;;;14.50;99.90;;;;;;4990104;28;20050;-78
2022/05/25 06:38:57;;;;;;;5.32;4.13;;;14.70;99.90;;;;;;4986008;28;20138;-78
2022/05/25 06:41:23;;;;;;;6.80;4.80;;;14.60;99.90;;;;;;4988657;28;20026;-77
2022/05/25 06:43:48;;;;;;;7.38;4.95;;;14.60;99.90;;;;;;4989254;28;20050;-77
2022/05/25 06:46:19;;;;;;;6.78;4.25;;;14.60;99.90;;;;;;4989357;28;20069;-77
2022/05/25 06:48:55;;;;;;;5.90;4.60;;;14.70;99.90;;;;;;4989859;28;20053;-77
2022/05/25 06:51:27;;;;;;;6.07;4.20;;;14.80;99.90;;;;;;4972908;28;20030;-77
2022/05/25 06:53:53;;;;;;;5.22;4.10;;;14.90;99.90;;;;;;4989461;28;20439;-78
2022/05/25 06:56:20;;;;;;;6.53;4.93;;;14.90;99.90;;;;;;4998293;28;20022;-78
2022/05/25 06:58:47;;;;;;;4.88;3.80;;;15.00;99.90;;;;;;5007928;28;20128;-77
2022/05/25 07:01:13;;;;;;;6.63;4.90;;;15.10;99.90;;;;;;5012493;28;20035;-78
2022/05/25 07:03:38;;;;;;;8.68;4.07;;;15.10;99.90;;;;;;5005392;28;20047;-77
2022/05/25 07:06:05;;;;;;;5.82;4.13;;;15.20;99.90;;;;;;5009925;28;20031;-77
2022/05/25 07:08:32;;;;;;;6.47;5.05;;;15.20;99.90;;;;;;5007225;28;20031;-77
2022/05/25 07:10:57;;;;;;;5.85;4.30;;;15.10;99.90;;;;;;4990287;28;20022;-78
2022/05/25 07:13:24;;;;;;;7.85;4.05;;;15.20;99.90;;;;;;4988904;28;20046;-77
2022/05/25 07:15:55;;;;;;;4.55;3.40;;;15.20;99.90;;;;;;4989960;28;20080;-77
2022/05/25 07:18:21;;;;;;;4.88;3.33;;;15.30;99.90;;;;;;4988958;28;20034;-78
2022/05/25 07:20:47;;;;;;;3.97;3.00;;;15.40;99.90;;;;;;4989792;28;20027;-77
2022/05/25 07:23:12;;;;;;;4.72;4.13;;;15.40;99.90;;;;;;4990799;28;20034;-79
2022/05/25 07:25:38;;;;;;;4.85;3.40;;;15.40;99.90;;;;;;4989753;28;20054;-77
2022/05/25 07:28:04;;;;;;;5.43;3.20;;;15.50;99.90;;;;;;4990882;28;20034;-77
2022/05/25 07:30:29;;;;;;;4.90;3.30;;;15.60;99.90;;;;;;4991418;28;20049;-77
2022/05/25 07:32:57;;;;;;;4.05;3.55;;;15.60;99.90;;;;;;4993238;28;20027;-76
2022/05/25 07:35:23;;;;;;;5.18;3.70;;;15.70;99.90;;;;;;4973054;28;20034;-77
2022/05/25 07:37:54;;;;;;;7.28;3.55;;;15.70;99.90;;;;;;4987717;28;20153;-78
2022/05/25 07:40:27;;;;;;;6.57;3.25;;;15.80;99.90;;;;;;4989513;28;20473;-77
2022/05/25 07:42:57;;;;;;;4.15;2.80;;;15.80;99.90;;;;;;4990095;28;20088;-78
2022/05/25 07:45:24;;;;;;;4.68;3.40;;;15.90;99.90;;;;;;4992915;28;20041;-78
2022/05/25 07:47:53;;;;;;;5.38;3.25;;;15.90;99.90;;;;;;4992113;28;20165;-78
2022/05/25 07:50:20;;;;;;;3.67;2.97;;;15.80;99.90;;;;;;4991439;28;20368;-77
2022/05/25 07:52:46;;;;;;;4.90;3.30;;;15.90;99.90;;;;;;4994397;28;20031;-78
2022/05/25 07:55:12;;;;;;;6.38;3.28;;;16.00;99.90;;;;;;4989782;28;20061;-78
2022/05/25 07:57:39;;;;;;;5.43;3.97;;;16.10;99.90;;;;;;4994691;28;20058;-78
2022/05/25 08:00:06;;;;;;;4.68;3.22;;;16.10;99.90;;;;;;4994611;28;20026;-78
2022/05/25 08:05:46;;;;;;;6.47;3.60;;;16.10;99.90;;;;;;4992483;28;20022;-78
2022/05/25 08:08:23;;;;;;;5.30;3.83;;;16.20;99.90;;;;;;4992361;28;20550;-77
2022/05/25 08:10:52;;;;;;;4.55;2.90;;;16.30;99.90;;;;;;4989862;28;20109;-77
2022/05/25 08:13:18;;;;;;;5.55;3.22;;;16.30;99.90;;;;;;4970008;28;20414;-77
2022/05/25 08:15:45;;;;;;;5.10;3.20;;;16.30;99.90;;;;;;4992107;28;20050;-77
2022/05/25 08:18:15;;;;;;;5.07;3.67;;;16.40;99.90;;;;;;4992247;28;20058;-78
2022/05/25 08:20:42;;;;;;;6.17;3.27;;;16.40;99.90;;;;;;4990236;28;20488;-78
2022/05/25 08:23:12;;;;;;;3.58;2.60;;;16.40;99.90;;;;;;4976175;28;20042;-77
2022/05/25 08:25:39;;;;;;;3.05;2.50;;;16.50;99.90;;;;;;4972858;28;20057;-77
2022/05/25 08:28:05;;;;;;;6.00;3.15;;;16.50;99.90;;;;;;4991080;28;20506;-77
2022/05/25 08:30:33;;;;;;;5.30;3.17;;;16.60;99.90;;;;;;4976173;28;20554;-77
2022/05/25 08:32:59;;;;;;;3.13;2.60;;;16.80;99.90;;;;;;4992549;28;20034;-77
2022/05/25 08:35:27;;;;;;;3.35;2.70;;;16.70;99.90;;;;;;4993670;28;20038;-78
2022/05/25 08:37:53;;;;;;;6.32;3.15;;;16.80;99.90;;;;;;4991846;28;20553;-77
2022/05/25 08:40:22;;;;;;;2.97;2.22;;;16.80;99.90;;;;;;4990157;28;20503;-78
2022/05/25 08:42:53;;;;;;;5.30;2.50;;;16.90;99.90;;;;;;4991893;28;20026;-77
2022/05/25 08:45:22;;;;;;;4.60;2.25;;;16.90;99.90;;;;;;4993029;28;20034;-77
2022/05/25 08:47:52;;;;;;;2.95;2.17;;;17.10;99.90;;;;;;4992812;28;20394;-78
2022/05/25 08:50:18;;;;;;;2.93;2.00;;;17.00;99.90;;;;;;4991426;28;20027;-78
2022/05/25 08:52:45;;;;;;;6.03;2.17;;;16.90;99.90;;;;;;4993286;28;20273;-78
2022/05/25 08:55:16;;;;;;;3.75;2.40;;;16.80;99.00;;;;;;4989558;28;20030;-77
2022/05/25 08:57:48;;;;;;;3.13;2.33;;;16.80;99.30;;;;;;4991179;28;20031;-78
2022/05/25 09:00:16;;;;;;;;;;;17.00;99.90;;;;;;4995912;28;20105;-78
2022/05/25 09:02:53;;;;;;;5.43;2.17;;;17.20;99.80;;;;;;4993458;28;19905;-78
2022/05/25 09:05:24;;;;;;;3.05;2.15;;;17.20;99.00;;;;;;4994614;28;20395;-78
2022/05/25 09:08:03;;;;;;;4.03;2.50;;;17.30;99.30;;;;;;4999753;28;20193;-79
2022/05/25 09:10:32;;;;;;;3.42;2.17;;;17.20;99.20;;;;;;4997063;28;20081;-78
2022/05/25 09:13:13;;;;;;;4.57;2.15;;;17.20;99.20;;;;;;4989284;28;20565;-78
2022/05/25 09:18:33;;;;;;;3.92;2.50;;;17.50;98.80;;;;;;4996139;28;20041;-78
2022/05/25 09:21:03;;;;;;;2.95;2.20;;;17.60;98.50;;;;;;4991086;28;20027;-79
2022/05/25 09:23:29;;;;;;;3.88;2.47;;;17.60;98.40;;;;;;5002127;28;20033;-78
2022/05/25 09:25:56;;;;;;;3.20;1.75;;;17.80;98.10;;;;;;4978280;28;20687;-78
2022/05/25 09:28:28;;;;;;;2.38;1.60;;;17.80;97.60;;;;;;4977440;28;20030;-78
2022/05/25 09:30:57;;;;;;;1.88;1.40;;;17.80;97.30;;;;;;4992168;28;20053;-78
2022/05/25 09:33:38;;;;;;;3.30;1.80;;;17.70;97.50;;;;;;4977313;28;20062;-78
2022/05/25 09:36:19;;;;;;;3.90;2.30;;;17.60;97.90;;;;;;4989829;28;20130;-76
2022/05/25 09:38:56;;;;;;;3.05;2.58;;;17.60;98.00;;;;;;4990393;28;20081;-77
2022/05/25 09:41:25;;;;;;;3.83;2.20;;;17.50;97.90;;;;;;4990709;28;20033;-77
2022/05/25 09:43:54;;;;;;;4.82;2.30;;;17.40;98.00;;;;;;4974372;28;20026;-76
2022/05/25 09:46:28;;;;;;;2.47;1.83;;;17.50;97.60;;;;;;4973008;28;20461;-77
2022/05/25 09:49:35;;;;;;;1.95;1.60;;;17.70;97.30;;;;;;4990363;28;20037;-78
2022/05/25 09:52:06;;;;;;;2.75;1.80;;;17.80;96.60;;;;;;4991117;28;20026;-77
2022/05/25 09:54:41;;;;;;;3.65;2.47;;;18.00;97.30;;;;;;4973717;28;20105;-77
2022/05/25 09:57:32;;;;;;;4.10;2.70;;;18.10;96.40;;;;;;4990196;28;20022;-78
2022/05/25 10:00:03;;;;;;;4.32;2.05;;;18.20;94.50;;;;;;4990060;28;20098;-77
2022/05/25 10:02:42;;;;;;;4.63;2.15;;;18.30;95.40;;;;;;4987400;28;20026;-77
2022/05/25 10:05:25;;;;;;;2.10;1.73;;;18.40;95.20;;;;;;4990227;28;20014;-78
2022/05/25 10:07:53;;;;;;;4.60;1.70;;;18.40;95.20;;;;;;4973220;28;20027;-78
2022/05/25 10:10:31;;;;;;;4.22;2.13;;;18.40;94.70;;;;;;4973690;28;20040;-77
2022/05/25 10:13:22;;;;;;;3.08;2.38;;;18.60;95.20;;;;;;4990569;28;20029;-78
2022/05/25 10:15:51;;;;;;;3.00;1.40;;;18.80;94.40;;;;;;4971718;28;20384;-77
2022/05/25 10:18:35;;;;;;;2.78;2.25;;;18.70;93.60;;;;;;4974236;28;20033;-78
2022/05/25 10:21:04;;;;;;;5.07;2.05;;;18.70;93.40;;;;;;4989184;28;20088;-78
2022/05/25 10:23:30;;;;;;;2.10;1.80;;;18.70;93.60;;;;;;4990011;28;20057;-78
2022/05/25 10:26:07;;;;;;;2.70;1.77;;;18.60;93.00;;;;;;4987858;28;20040;-78
2022/05/25 10:28:36;;;;;;;3.10;1.80;;;18.80;93.80;;;;;;4992224;28;20030;-78
2022/05/25 10:37:01;;;;;;;3.03;1.20;;;19.20;92.30;;;;;;4991363;28;20023;-78
2022/05/25 10:39:29;;;;;;;1.52;1.20;;;19.20;92.00;;;;;;4990835;28;20038;-78
2022/05/25 10:42:04;;;;;;;1.52;1.10;;;19.10;92.70;;;;;;4991377;28;20030;-78
2022/05/25 10:44:59;;;;;;;2.17;1.20;;;19.20;92.90;;;;;;4976224;28;20450;-78
2022/05/25 10:47:54;;;;;;;3.40;2.47;;;19.30;92.30;;;;;;4974115;28;20035;-78
2022/05/25 10:50:43;;;;;;;1.83;1.65;;;19.30;90.80;;;;;;4975286;28;20026;-78
2022/05/25 10:53:20;;;;;;;1.65;1.40;;;19.40;92.20;;;;;;4976319;28;20061;-79
2022/05/25 10:56:04;;;;;;;3.90;1.55;;;19.80;91.80;;;;;;4984780;28;20080;-79
2022/05/25 10:58:49;;;;;;;1.80;1.10;;;19.90;90.80;;;;;;4991591;28;20057;-78
2022/05/25 11:01:20;;;;;;;4.93;1.67;;;20.00;89.50;;;;;;4991715;28;20042;-78
2022/05/25 11:04:20;;;;;;;2.45;1.55;;;20.00;85.60;;;;;;4991858;28;20026;-78
2022/05/25 11:06:58;;;;;;;2.70;1.10;;;20.10;83.40;;;;;;4990622;28;20422;-78
2022/05/25 11:09:36;;;;;;;2.72;1.80;;;20.30;85.70;;;;;;4991605;28;20085;-78
2022/05/25 11:12:21;;;;;;;1.40;1.10;;;20.30;82.20;;;;;;4988690;28;20035;-78
2022/05/25 11:14:58;;;;;;;3.42;1.15;;;20.60;82.40;;;;;;4974236;28;20038;-78
2022/05/25 11:17:35;;;;;;;3.38;1.15;;;21.60;78.40;;;;;;4992690;28;20027;-79
2022/05/25 11:20:16;;;;;;;3.17;1.40;;;23.20;74.70;;;;;;4994871;28;20509;-79
2022/05/25 11:22:56;;;;;;;;;;;25.10;64.20;;;;;;4995383;28;20097;-77
2022/05/25 11:25:59;;;;;;;1.45;1.00;;;25.70;56.60;;;;;;4993142;28;19905;-77
2022/05/25 11:28:44;;;;;;;1.08;0.80;;;26.40;54.60;;;;;;4990119;28;20023;-78
2022/05/25 11:31:17;;;;;;;1.05;0.60;;;28.00;53.60;;;;;;4992469;28;20030;-77
2022/05/25 11:33:48;;;;;;;1.30;0.50;;;29.40;48.20;;;;;;4992803;28;20076;-77
2022/05/25 11:36:38;;;;;;;1.15;0.73;;;30.60;47.50;;;;;;4992530;28;20406;-77
2022/05/25 11:39:32;;;;;;;3.60;1.20;;;30.50;44.60;;;;;;4992817;28;20030;-77
2022/05/25 11:42:21;;;;;;;2.33;1.00;;;29.50;44.60;;;;;;4992046;28;20038;-78
2022/05/25 11:45:06;;;;;;;47.45;36.03;;;28.70;43.70;;;;;;4990325;28;20060;-78
2022/05/25 11:48:06;;;;;;;20.30;16.33;;;27.90;43.80;;;;;;5006756;28;20026;-76
2022/05/25 11:50:56;;;;;;;12.48;9.50;;;27.10;45.70;;;;;;5002670;28;20117;-77
2022/05/25 11:53:28;;;;;;;2.65;2.03;;;25.90;47.50;;;;;;4993584;28;20050;-77
2022/05/25 11:55:59;;;;;;;1.50;0.85;;;25.00;49.90;;;;;;4994626;28;20112;-77
2022/05/25 11:58:28;;;;;;;1.42;0.90;;;25.10;51.00;;;;;;4992212;28;20037;-77
2022/05/25 12:01:03;;;;;;;1.88;1.08;;;25.30;49.50;;;;;;4989931;28;20033;-77
2022/05/25 12:03:43;;;;;;;2.63;0.80;;;24.80;48.50;;;;;;5005106;28;20103;-77
2022/05/25 12:07:04;;;;;;;2.10;1.20;;;24.30;51.40;;;;;;4992433;28;20548;-76
2022/05/25 12:09:55;;;;;;;1.65;0.80;;;23.90;52.10;;;;;;4974515;28;20097;-77
2022/05/25 12:12:52;;;;;;;1.80;0.85;;;23.20;53.60;;;;;;5006648;28;20042;-76
2022/05/25 12:15:21;;;;;;;1.92;0.70;;;22.20;54.20;;;;;;4991658;28;20078;-76
2022/05/25 12:18:03;;;;;;;1.70;0.90;;;21.70;55.40;;;;;;4989953;28;20030;-78
2022/05/25 12:20:47;;;;;;;2.15;1.20;;;21.20;57.70;;;;;;4992627;28;20023;-77
2022/05/25 12:23:17;;;;;;;3.10;1.30;;;20.80;65.60;;;;;;4991295;28;20027;-77
2022/05/25 12:25:51;;;;;;;2.38;1.30;;;20.60;66.90;;;;;;4975537;28;20145;-78
2022/05/25 12:28:17;;;;;;;1.20;0.98;;;20.80;67.60;;;;;;4992619;28;20046;-78
2022/05/25 12:30:47;;;;;;;2.03;0.98;;;21.60;69.70;;;;;;4992111;28;20030;-78
2022/05/25 12:33:22;;;;;;;1.17;0.80;;;22.80;70.50;;;;;;4992178;28;20080;-77
2022/05/25 12:35:49;;;;;;;1.73;0.80;;;23.10;68.50;;;;;;4991247;28;20030;-78
2022/05/25 12:38:16;;;;;;;1.02;0.88;;;22.70;64.80;;;;;;4992526;28;20065;-76
2022/05/25 12:40:47;;;;;;;2.17;0.75;;;22.20;66.20;;;;;;4994877;28;20030;-77
2022/05/25 12:43:34;;;;;;;3.80;1.45;;;21.60;67.10;;;;;;4988750;28;20026;-77
2022/05/25 12:48:57;;;;;;;1.88;0.98;;;20.60;68.30;;;;;;4992691;28;20035;-78
2022/05/25 12:51:34;;;;;;;2.35;1.52;;;20.50;69.70;;;;;;4991186;28;20085;-78
2022/05/25 12:54:16;;;;;;;4.47;1.10;;;21.20;72.10;;;;;;4991391;28;20433;-78
2022/05/25 12:56:42;;;;;;;0.65;0.50;;;23.50;68.00;;;;;;4977147;28;20122;-78
2022/05/25 12:59:12;;;;;;;1.20;0.60;;;25.70;64.30;;;;;;4994205;28;20514;-78
2022/05/25 13:01:40;;;;;;;3.25;0.73;;;27.70;57.40;;;;;;5003303;28;20034;-78
2022/05/25 13:04:09;;;;;;;0.98;0.63;;;28.30;51.70;;;;;;5003752;28;20035;-77
2022/05/25 13:06:38;;;;;;;2.17;0.70;;;27.30;49.60;;;;;;4992012;28;20041;-78
2022/05/25 13:09:35;;;;;;;1.27;0.70;;;26.00;51.70;;;;;;4991706;28;20042;-77
2022/05/25 13:12:42;;;;;;;1.70;0.60;;;24.90;53.20;;;;;;4992562;28;20185;-77
2022/05/25 13:15:20;;;;;;;2.10;0.70;;;24.20;54.40;;;;;;4991911;28;20130;-78
2022/05/25 13:17:56;;;;;;;2.72;0.80;;;24.90;55.80;;;;;;4994341;28;20555;-78
2022/05/25 13:20:27;;;;;;;1.77;0.70;;;26.70;52.60;;;;;;4993084;28;20097;-78
2022/05/25 13:22:59;;;;;;;1.45;0.82;;;27.70;50.30;;;;;;4993799;28;20117;-78
2022/05/25 13:25:48;;;;;;;1.90;0.50;;;27.30;49.30;;;;;;4992036;28;20034;-78
2022/05/25 13:28:44;;;;;;;2.03;0.68;;;28.20;49.80;;;;;;4994315;28;20072;-78
2022/05/25 13:31:25;;;;;;;1.35;0.60;;;29.60;47.00;;;;;;4995169;28;20058;-78
2022/05/25 13:33:52;;;;;;;1.20;0.50;;;29.70;45.80;;;;;;4992313;28;20018;-78
2022/05/25 13:36:24;;;;;;;1.23;0.98;;;29.00;44.50;;;;;;4992690;28;20068;-78
2022/05/25 13:38:55;;;;;;;1.63;0.70;;;29.00;44.90;;;;;;4990575;28;20030;-78
2022/05/25 13:41:32;;;;;;;2.83;0.90;;;30.40;45.40;;;;;;4991214;28;20529;-78
2022/05/25 13:43:57;;;;;;;3.95;0.85;;;32.20;41.20;;;;;;4993439;28;20085;-77